Time,TemperatureF,DewpointF,PressureIn,WindDirection,WindDirectionDegrees,WindSpeedMPH,WindSpeedGustMPH,Humidity,HourlyPrecipIn,Conditions,Clouds,dailyrainin,SoftwareType,DateUTC
2013-03-26 00:08:00,45.3,25.0,30.36,West,275,1.0,8.0,45,0.00,,,0.00,weatherlink.com 1.10,2013-03-26 05:08:00,
2013-03-26 00:23:00,45.1,24.0,30.36,West,271,2.0,6.0,44,0.00,,,0.00,weatherlink.com 1.10,2013-03-26 05:23:00,
2013-03-26 00:38:00,44.9,25.0,30.37,West,271,0.0,6.0,45,0.00,,,0.00,weatherlink.com 1.10,2013-03-26 05:38:00,
2013-03-26 00:53:00,44.9,25.0,30.37,WNW,288,2.0,6.0,45,0.00,,,0.00,weatherlink.com 1.10,2013-03-26 05:53:00,
2013-03-26 01:08:00,45.0,25.0,30.37,West,278,2.0,5.0,46,0.00,,,0.00,weatherlink.com 1.10,2013-03-26 06:08:00,
2013-03-26 01:23:00,44.6,24.0,30.37,WNW,283,2.0,6.0,45,0.00,,,0.00,weatherlink.com 1.10,2013-03-26 06:23:00,
2013-03-26 01:38:00,44.3,25.0,30.38,ENE,64,2.0,8.0,46,0.00,,,0.00,weatherlink.com 1.10,2013-03-26 06:38:00,
2013-03-26 01:53:00,44.5,24.0,30.38,WNW,285,1.0,7.0,45,0.00,,,0.00,weatherlink.com 1.10,2013-03-26 06:53:00,
2013-03-26 02:08:00,44.7,25.0,30.38,West,272,2.0,10.0,47,0.00,,,0.00,weatherlink.com 1.10,2013-03-26 07:08:00,
2013-03-26 02:23:00,45.0,26.0,30.38,NNW,331,4.0,10.0,47,0.00,,,0.00,weatherlink.com 1.10,2013-03-26 07:23:00,
2013-03-26 02:38:00,44.6,25.0,30.38,North,355,4.0,9.0,47,0.00,,,0.00,weatherlink.com 1.10,2013-03-26 07:38:00,
2013-03-26 02:53:00,44.1,27.0,30.38,North,5,5.0,9.0,51,0.00,,,0.00,weatherlink.com 1.10,2013-03-26 07:53:00,
2013-03-26 03:09:00,43.5,27.0,30.38,NNE,25,5.0,13.0,52,0.00,,,0.00,weatherlink.com 1.10,2013-03-26 08:09:00,
2013-03-26 03:24:00,43.1,25.0,30.38,North,5,5.0,11.0,49,0.00,,,0.00,weatherlink.com 1.10,2013-03-26 08:24:00,
2013-03-26 03:39:00,42.4,24.0,30.38,North,360,1.0,9.0,49,0.00,,,0.00,weatherlink.com 1.10,2013-03-26 08:39:00,
2013-03-26 03:54:00,41.7,25.0,30.39,North,355,2.0,7.0,51,0.00,,,0.00,weatherlink.com 1.10,2013-03-26 08:54:00,
2013-03-26 04:09:00,41.1,25.0,30.39,NNW,344,0.0,5.0,53,0.00,,,0.00,weatherlink.com 1.10,2013-03-26 09:09:00,
2013-03-26 04:24:00,40.6,24.0,30.38,North,5,3.0,4.0,53,0.00,,,0.00,weatherlink.com 1.10,2013-03-26 09:24:00,
2013-03-26 04:39:00,40.1,25.0,30.38,NNE,22,3.0,6.0,55,0.00,,,0.00,weatherlink.com 1.10,2013-03-26 09:39:00,
2013-03-26 04:54:00,39.8,25.0,30.38,NE,48,0.0,6.0,56,0.00,,,0.00,weatherlink.com 1.10,2013-03-26 09:54:00,
2013-03-26 05:09:00,39.4,25.0,30.38,NE,44,0.0,3.0,57,0.00,,,0.00,weatherlink.com 1.10,2013-03-26 10:09:00,
2013-03-26 05:24:00,38.6,26.0,30.38,NE,44,0.0,1.0,62,0.00,,,0.00,weatherlink.com 1.10,2013-03-26 10:24:00,
2013-03-26 05:39:00,37.8,27.0,30.38,NE,44,0.0,0.0,65,0.00,,,0.00,weatherlink.com 1.10,2013-03-26 10:39:00,
2013-03-26 05:54:00,36.6,27.0,30.39,NE,44,0.0,0.0,67,0.00,,,0.00,weatherlink.com 1.10,2013-03-26 10:54:00,
2013-03-26 06:09:00,35.6,26.0,30.39,NE,44,0.0,0.0,69,0.00,,,0.00,weatherlink.com 1.10,2013-03-26 11:09:00,
2013-03-26 06:24:00,34.2,26.0,30.40,NE,44,0.0,0.0,72,0.00,,,0.00,weatherlink.com 1.10,2013-03-26 11:24:00,
2013-03-26 06:39:00,32.9,25.0,30.41,NE,44,0.0,0.0,74,0.00,,,0.00,weatherlink.com 1.10,2013-03-26 11:39:00,
2013-03-26 06:54:00,31.8,25.0,30.41,NE,44,0.0,1.0,76,0.00,,,0.00,weatherlink.com 1.10,2013-03-26 11:54:00,
2013-03-26 07:09:00,30.8,25.0,30.42,NE,49,0.0,2.0,78,0.00,,,0.00,weatherlink.com 1.10,2013-03-26 12:09:00,
2013-03-26 07:39:00,29.8,25.0,30.43,NE,49,0.0,1.0,82,0.00,,,0.00,weatherlink.com 1.10,2013-03-26 12:39:00,
2013-03-26 07:54:00,29.7,25.0,30.43,NE,49,0.0,1.0,83,0.00,,,0.00,weatherlink.com 1.10,2013-03-26 12:54:00,
2013-03-26 08:10:00,30.2,26.0,30.44,NE,49,0.0,0.0,84,0.00,,,0.00,weatherlink.com 1.10,2013-03-26 13:10:00,
2013-03-26 08:25:00,31.2,28.0,30.45,NE,49,0.0,1.0,86,0.00,,,0.00,weatherlink.com 1.10,2013-03-26 13:25:00,
2013-03-26 08:40:00,34.8,29.0,30.46,North,9,2.0,6.0,80,0.00,,,0.00,weatherlink.com 1.10,2013-03-26 13:40:00,
2013-03-26 08:55:00,39.7,27.0,30.46,NNE,12,6.0,8.0,60,0.00,,,0.00,weatherlink.com 1.10,2013-03-26 13:55:00,
2013-03-26 09:10:00,42.2,27.0,30.47,NNW,342,5.0,8.0,55,0.00,,,0.00,weatherlink.com 1.10,2013-03-26 14:10:00,
2013-03-26 09:25:00,43.3,27.0,30.47,NE,36,2.0,8.0,53,0.00,,,0.00,weatherlink.com 1.10,2013-03-26 14:25:00,
2013-03-26 09:40:00,44.2,27.0,30.48,NNE,33,1.0,8.0,51,0.00,,,0.00,weatherlink.com 1.10,2013-03-26 14:40:00,
2013-03-26 09:55:00,45.2,27.0,30.48,NW,311,5.0,8.0,49,0.00,,,0.00,weatherlink.com 1.10,2013-03-26 14:55:00,
2013-03-26 10:10:00,45.4,26.0,30.48,WNW,294,0.0,9.0,46,0.00,,,0.00,weatherlink.com 1.10,2013-03-26 15:10:00,
2013-03-26 10:25:00,46.7,26.0,30.48,NW,325,1.0,11.0,45,0.00,,,0.00,weatherlink.com 1.10,2013-03-26 15:25:00,
2013-03-26 10:40:00,47.6,25.0,30.48,NW,319,4.0,6.0,42,0.00,,,0.00,weatherlink.com 1.10,2013-03-26 15:40:00,
2013-03-26 10:55:00,47.3,25.0,30.48,NNE,15,5.0,8.0,42,0.00,,,0.00,weatherlink.com 1.10,2013-03-26 15:55:00,
2013-03-26 11:10:00,48.0,26.0,30.47,NW,319,3.0,8.0,43,0.00,,,0.00,weatherlink.com 1.10,2013-03-26 16:10:00,
2013-03-26 11:25:00,48.7,27.0,30.47,West,280,2.0,8.0,43,0.00,,,0.00,weatherlink.com 1.10,2013-03-26 16:25:00,
2013-03-26 11:40:00,49.3,25.0,30.46,NNW,328,1.0,14.0,39,0.00,,,0.00,weatherlink.com 1.10,2013-03-26 16:40:00,
2013-03-26 11:55:00,49.7,27.0,30.46,West,275,3.0,9.0,41,0.00,,,0.00,weatherlink.com 1.10,2013-03-26 16:55:00,
2013-03-26 12:10:00,50.3,25.0,30.45,NNW,348,4.0,12.0,38,0.00,,,0.00,weatherlink.com 1.10,2013-03-26 17:10:00,
2013-03-26 12:25:00,51.7,27.0,30.44,WSW,255,1.0,9.0,38,0.00,,,0.00,weatherlink.com 1.10,2013-03-26 17:25:00,
2013-03-26 12:40:00,51.6,25.0,30.44,NW,316,1.0,9.0,36,0.00,,,0.00,weatherlink.com 1.10,2013-03-26 17:40:00,
2013-03-26 12:55:00,53.2,25.0,30.43,WNW,291,3.0,7.0,33,0.00,,,0.00,weatherlink.com 1.10,2013-03-26 17:55:00,
2013-03-26 13:10:00,52.8,24.0,30.42,North,355,3.0,12.0,32,0.00,,,0.00,weatherlink.com 1.10,2013-03-26 18:10:00,
2013-03-26 13:25:00,53.5,26.0,30.41,West,263,3.0,10.0,34,0.00,,,0.00,weatherlink.com 1.10,2013-03-26 18:25:00,
2013-03-26 13:40:00,54.0,24.0,30.41,East,99,5.0,8.0,31,0.00,,,0.00,weatherlink.com 1.10,2013-03-26 18:40:00,
2013-03-26 13:55:00,54.2,23.0,30.40,NNE,20,3.0,8.0,30,0.00,,,0.00,weatherlink.com 1.10,2013-03-26 18:55:00,
2013-03-26 14:10:00,55.1,26.0,30.39,West,280,3.0,9.0,33,0.00,,,0.00,weatherlink.com 1.10,2013-03-26 19:10:00,
2013-03-26 14:25:00,55.5,24.0,30.38,West,271,1.0,8.0,30,0.00,,,0.00,weatherlink.com 1.10,2013-03-26 19:25:00,
2013-03-26 14:40:00,56.0,26.0,30.38,WNW,300,5.0,8.0,32,0.00,,,0.00,weatherlink.com 1.10,2013-03-26 19:40:00,
2013-03-26 14:55:00,56.2,26.0,30.37,NNE,13,6.0,10.0,31,0.00,,,0.00,weatherlink.com 1.10,2013-03-26 19:55:00,
2013-03-26 15:10:00,56.4,24.0,30.36,WNW,288,2.0,8.0,29,0.00,,,0.00,weatherlink.com 1.10,2013-03-26 20:10:00,
2013-03-26 15:25:00,57.0,25.0,30.35,NW,318,4.0,8.0,29,0.00,,,0.00,weatherlink.com 1.10,2013-03-26 20:25:00,
2013-03-26 15:40:00,57.2,24.0,30.35,NW,324,6.0,12.0,28,0.00,,,0.00,weatherlink.com 1.10,2013-03-26 20:40:00,
2013-03-26 15:55:00,57.3,24.0,30.34,NNW,331,1.0,13.0,28,0.00,,,0.00,weatherlink.com 1.10,2013-03-26 20:55:00,
2013-03-26 16:10:00,57.1,23.0,30.34,NW,306,3.0,8.0,27,0.00,,,0.00,weatherlink.com 1.10,2013-03-26 21:10:00,
2013-03-26 16:26:00,57.0,23.0,30.34,NW,317,1.0,9.0,27,0.00,,,0.00,weatherlink.com 1.10,2013-03-26 21:26:00,
2013-03-26 16:41:00,57.6,24.0,30.33,NNW,348,2.0,7.0,27,0.00,,,0.00,weatherlink.com 1.10,2013-03-26 21:41:00,
2013-03-26 16:56:00,57.4,23.0,30.33,SW,234,1.0,7.0,26,0.00,,,0.00,weatherlink.com 1.10,2013-03-26 21:56:00,
2013-03-26 17:11:00,57.2,24.0,30.33,NE,35,5.0,10.0,28,0.00,,,0.00,weatherlink.com 1.10,2013-03-26 22:11:00,
2013-03-26 17:26:00,57.1,24.0,30.32,NE,46,5.0,8.0,28,0.00,,,0.00,weatherlink.com 1.10,2013-03-26 22:26:00,
2013-03-26 17:41:00,57.5,25.0,30.32,NNE,27,2.0,8.0,29,0.00,,,0.00,weatherlink.com 1.10,2013-03-26 22:41:00,
2013-03-26 17:56:00,56.8,25.0,30.32,NW,307,3.0,5.0,29,0.00,,,0.00,weatherlink.com 1.10,2013-03-26 22:56:00,
2013-03-26 18:11:00,56.8,25.0,30.32,NNW,327,2.0,5.0,29,0.00,,,0.00,weatherlink.com 1.10,2013-03-26 23:11:00,
2013-03-26 18:26:00,56.3,25.0,30.32,NNW,327,2.0,6.0,30,0.00,,,0.00,weatherlink.com 1.10,2013-03-26 23:26:00,
2013-03-26 18:41:00,55.9,25.0,30.32,North,360,1.0,5.0,31,0.00,,,0.00,weatherlink.com 1.10,2013-03-26 23:41:00,
2013-03-26 18:56:00,55.4,24.0,30.32,NW,315,0.0,4.0,30,0.00,,,0.00,weatherlink.com 1.10,2013-03-26 23:56:00,
2013-03-26 19:11:00,54.9,29.0,30.31,WNW,288,0.0,4.0,37,0.00,,,0.00,weatherlink.com 1.10,2013-03-27 00:11:00,
2013-03-26 19:26:00,53.7,30.0,30.31,West,267,1.0,2.0,40,0.00,,,0.00,weatherlink.com 1.10,2013-03-27 00:26:00,
2013-03-26 19:41:00,51.8,31.0,30.31,West,267,0.0,1.0,45,0.00,,,0.00,weatherlink.com 1.10,2013-03-27 00:41:00,
2013-03-26 20:41:00,43.9,32.0,30.33,West,267,0.0,1.0,64,0.00,,,0.00,weatherlink.com 1.10,2013-03-27 01:41:00,
2013-03-26 21:26:00,40.7,32.0,30.33,WSW,253,0.0,2.0,71,0.00,,,0.00,weatherlink.com 1.10,2013-03-27 02:26:00,
2013-03-26 23:11:00,36.8,31.0,30.36,WSW,253,0.0,1.0,78,0.00,,,0.00,weatherlink.com 1.10,2013-03-27 04:11:00,
2013-03-26 23:41:00,36.0,30.0,30.36,WSW,253,0.0,0.0,79,0.00,,,0.00,weatherlink.com 1.10,2013-03-27 04:41:00,
2013-03-26 23:56:00,35.6,30.0,30.36,WSW,253,0.0,1.0,80,0.00,,,0.00,weatherlink.com 1.10,2013-03-27 04:56:00,